createdAt,value
2023-05-03T00:02:44.792Z,10.60
2023-05-03T00:05:48.770Z,9.35
2023-05-03T00:08:51.464Z,9.00
2023-05-03T00:11:54.072Z,11.10
2023-05-03T00:14:56.532Z,10.50
2023-05-03T00:17:59.109Z,10.63
2023-05-03T00:21:01.559Z,11.25
2023-05-03T00:24:04.270Z,10.00
2023-05-03T00:27:06.874Z,11.10
2023-05-03T00:30:10.184Z,9.63
2023-05-03T00:33:12.941Z,8.63
2023-05-03T00:36:15.647Z,9.88
2023-05-03T00:39:18.522Z,9.40
2023-05-03T00:42:20.977Z,9.27
2023-05-03T00:45:24.150Z,8.38
2023-05-03T00:48:27.335Z,8.23
2023-05-03T00:51:29.773Z,12.10
2023-05-03T00:54:33.759Z,8.38
2023-05-03T00:57:36.263Z,10.32
2023-05-03T01:00:40.896Z,7.78
2023-05-03T01:03:43.683Z,10.25
2023-05-03T01:07:15.152Z,10.38
2023-05-03T01:10:41.032Z,10.40
2023-05-03T01:14:05.791Z,8.05
2023-05-03T01:17:12.726Z,9.38
2023-05-03T01:20:18.219Z,7.80
2023-05-03T01:23:34.176Z,10.05
2023-05-03T01:26:37.257Z,10.73
2023-05-03T01:29:39.692Z,11.77
2023-05-03T01:32:51.521Z,8.98
2023-05-03T01:36:11.084Z,8.77
2023-05-03T01:39:23.237Z,9.52
2023-05-03T01:42:25.622Z,10.10
2023-05-03T01:45:28.313Z,9.45
2023-05-03T01:48:30.843Z,8.38
2023-05-03T01:51:33.485Z,10.57
2023-05-03T01:54:35.882Z,10.18
2023-05-03T01:57:38.375Z,8.70
2023-05-03T02:00:40.760Z,10.63
2023-05-03T02:03:43.633Z,9.55
2023-05-03T02:06:46.219Z,9.65
2023-05-03T02:09:48.828Z,9.05
2023-05-03T02:12:52.720Z,9.38
2023-05-03T02:15:55.673Z,10.00
2023-05-03T02:18:59.601Z,10.38
2023-05-03T02:22:02.465Z,9.27
2023-05-03T02:25:05.415Z,9.90
2023-05-03T02:31:13.648Z,8.63
2023-05-03T02:34:18.164Z,8.52
2023-05-03T02:40:24.516Z,10.60
2023-05-03T02:43:27.990Z,9.70
2023-05-03T02:49:34.007Z,11.23
2023-05-03T02:52:37.802Z,11.13
2023-05-03T02:55:40.404Z,8.68
2023-05-03T02:58:42.927Z,8.98
2023-05-03T03:04:49.204Z,9.23
2023-05-03T03:07:51.737Z,10.98
2023-05-03T03:10:54.543Z,12.55
2023-05-03T03:13:57.426Z,12.35
2023-05-03T03:17:03.478Z,12.75
2023-05-03T03:20:11.722Z,11.48
2023-05-03T03:23:17.223Z,12.20
2023-05-03T03:26:19.846Z,12.27
2023-05-03T03:29:22.585Z,10.82
2023-05-03T03:35:30.942Z,13.30
2023-05-03T03:38:33.616Z,11.30
2023-05-03T03:41:39.992Z,11.75
2023-05-03T03:44:42.601Z,10.57
2023-05-03T03:47:45.448Z,12.98
2023-05-03T03:50:47.898Z,11.73
2023-05-03T03:53:50.545Z,10.88
2023-05-03T03:56:53.399Z,11.75
2023-05-03T03:59:57.463Z,10.02
2023-05-03T04:02:59.970Z,10.90
2023-05-03T04:06:02.826Z,11.35
2023-05-03T04:09:06.505Z,10.63
2023-05-03T04:12:11.632Z,10.23
2023-05-03T04:15:15.990Z,9.85
2023-05-03T04:18:20.907Z,10.57
2023-05-03T04:21:24.259Z,11.63
2023-05-03T04:24:31.677Z,12.73
2023-05-03T04:27:34.584Z,12.45
2023-05-03T04:30:38.025Z,10.40
2023-05-03T04:33:40.977Z,11.98
2023-05-03T04:36:46.408Z,11.10
2023-05-03T04:39:49.637Z,11.90
2023-05-03T04:42:52.760Z,11.00
2023-05-03T04:45:55.890Z,11.32
2023-05-03T04:49:02.221Z,11.02
2023-05-03T04:52:04.961Z,11.35
2023-05-03T04:55:07.997Z,12.20
2023-05-03T04:58:11.202Z,11.93
2023-05-03T05:01:15.060Z,11.63
2023-05-03T05:04:18.639Z,12.05
2023-05-03T05:07:24.910Z,12.13
2023-05-03T05:10:27.654Z,11.65
2023-05-03T05:13:32.472Z,12.57
2023-05-03T05:16:35.106Z,10.95
2023-05-03T05:19:38.237Z,11.93
2023-05-03T05:22:41.142Z,11.25
2023-05-03T05:25:43.871Z,11.20
2023-05-03T05:28:47.265Z,11.82
2023-05-03T05:31:50.410Z,12.35
2023-05-03T05:34:55.675Z,11.45
2023-05-03T05:38:00.514Z,10.05
2023-05-03T05:41:05.249Z,10.63
2023-05-03T05:44:09.128Z,12.50
2023-05-03T05:47:12.337Z,10.75
2023-05-03T05:50:18.556Z,10.38
2023-05-03T05:53:28.734Z,10.88
2023-05-03T05:56:35.987Z,11.45
2023-05-03T05:59:39.903Z,10.43
2023-05-03T06:05:48.637Z,9.57
2023-05-03T06:08:52.019Z,10.52
2023-05-03T06:11:56.535Z,9.98
2023-05-03T06:15:02.331Z,10.52
2023-05-03T06:18:11.050Z,10.88
2023-05-03T06:21:13.788Z,10.45
2023-05-03T06:24:21.304Z,9.50
2023-05-03T06:27:26.608Z,10.95
2023-05-03T06:30:30.337Z,10.95
2023-05-03T06:33:39.466Z,10.30
2023-05-03T06:36:42.874Z,10.60
2023-05-03T06:39:45.543Z,11.73
2023-05-03T06:42:48.263Z,12.27
2023-05-03T06:45:56.895Z,10.38
2023-05-03T06:48:59.845Z,11.52
2023-05-03T06:52:02.960Z,10.57
2023-05-03T06:55:06.241Z,9.10
2023-05-03T06:58:11.853Z,12.25
2023-05-03T07:01:14.728Z,8.13
2023-05-03T07:04:17.413Z,12.27
2023-05-03T07:07:20.359Z,9.00
2023-05-03T07:10:23.748Z,9.52
2023-05-03T07:13:26.410Z,9.90
2023-05-03T07:16:29.720Z,13.63
2023-05-03T07:19:32.511Z,13.20
2023-05-03T07:22:35.042Z,10.82
2023-05-03T07:25:41.617Z,8.55
2023-05-03T07:28:44.217Z,9.63
2023-05-03T07:31:46.974Z,8.45
2023-05-03T07:34:52.578Z,9.00
2023-05-03T07:37:55.124Z,8.55
2023-05-03T07:40:57.586Z,8.70
2023-05-03T07:44:00.096Z,8.35
2023-05-03T07:47:02.847Z,9.98
2023-05-03T07:53:08.555Z,9.18
2023-05-03T07:56:12.687Z,9.73
2023-05-03T07:59:15.367Z,9.13
2023-05-03T08:02:18.240Z,8.13
2023-05-03T08:05:22.491Z,8.80
2023-05-03T08:08:25.815Z,8.52
2023-05-03T08:11:29.377Z,8.75
2023-05-03T08:14:32.148Z,8.68
2023-05-03T08:17:44.475Z,7.80
2023-05-03T08:20:47.714Z,9.40
2023-05-03T08:23:54.539Z,8.73
2023-05-03T08:26:57.322Z,9.43
2023-05-03T08:30:03.825Z,10.65
2023-05-03T08:33:06.809Z,9.05
2023-05-03T08:36:09.469Z,8.40
2023-05-03T08:42:14.591Z,9.35
2023-05-03T08:45:17.609Z,8.43
2023-05-03T08:48:20.122Z,8.43
2023-05-03T08:51:23.532Z,7.72
2023-05-03T08:54:27.504Z,9.57
2023-05-03T09:00:32.757Z,8.32
2023-05-03T09:03:35.753Z,8.57
2023-05-03T09:06:38.618Z,6.57
2023-05-03T09:09:41.340Z,8.30
2023-05-03T09:15:55.101Z,8.32
2023-05-03T09:18:58.918Z,8.40
2023-05-03T09:22:08.299Z,7.63
2023-05-03T09:25:12.236Z,7.72
2023-05-03T09:28:16.146Z,8.75
2023-05-03T09:31:18.798Z,9.73
2023-05-03T09:34:22.738Z,8.10
2023-05-03T09:37:36.425Z,9.52
2023-05-03T09:40:47.023Z,7.85
2023-05-03T09:43:50.735Z,9.10
2023-05-03T09:47:06.958Z,7.03
2023-05-03T09:50:09.723Z,8.20
2023-05-03T09:56:15.563Z,9.55
2023-05-03T09:59:18.223Z,10.38
2023-05-03T10:05:24.485Z,8.13
2023-05-03T10:08:28.192Z,6.60
2023-05-03T10:11:30.655Z,7.65
2023-05-03T10:14:34.651Z,7.68
2023-05-03T10:17:47.738Z,8.70
2023-05-03T10:21:07.510Z,6.72
2023-05-03T10:24:16.695Z,9.43
2023-05-03T10:27:19.587Z,7.30
2023-05-03T10:30:28.984Z,6.85
2023-05-03T10:33:33.928Z,6.65
2023-05-03T10:36:48.805Z,8.20
2023-05-03T10:39:55.479Z,9.35
2023-05-03T10:42:58.648Z,7.80
2023-05-03T10:46:05.668Z,7.43
2023-05-03T10:49:22.119Z,8.68
2023-05-03T10:52:59.603Z,8.07
2023-05-03T10:56:05.582Z,7.72
2023-05-03T10:59:08.542Z,7.18
2023-05-03T11:02:13.392Z,6.25
2023-05-03T11:05:17.290Z,7.93
2023-05-03T11:08:21.435Z,7.13
2023-05-03T11:11:23.846Z,7.10
2023-05-03T11:14:26.786Z,7.55
2023-05-03T11:17:29.441Z,7.70
2023-05-03T11:20:32.737Z,6.93
2023-05-03T11:23:35.556Z,7.25
2023-05-03T11:29:41.159Z,7.50
2023-05-03T11:32:43.747Z,7.15
2023-05-03T11:38:49.859Z,7.35
2023-05-03T11:45:08.349Z,8.98
2023-05-03T11:48:11.971Z,6.40
2023-05-03T11:51:15.556Z,7.78
2023-05-03T11:54:25.428Z,6.97
2023-05-03T11:57:29.901Z,7.32
2023-05-03T12:03:36.767Z,8.48
2023-05-03T12:06:40.647Z,7.65
2023-05-03T12:09:52.670Z,8.05
2023-05-03T12:13:05.110Z,7.03
2023-05-03T12:16:13.738Z,7.38
2023-05-03T12:22:32.083Z,7.05
2023-05-03T12:25:39.748Z,9.18
2023-05-03T12:28:42.965Z,8.82
2023-05-03T12:31:49.012Z,8.15
2023-05-03T12:34:56.847Z,11.68
2023-05-03T12:38:02.937Z,7.22
2023-05-03T12:41:09.055Z,7.60
2023-05-03T12:44:13.518Z,9.07
2023-05-03T12:47:28.024Z,7.20
2023-05-03T12:50:32.294Z,7.43
2023-05-03T12:53:38.695Z,8.85
2023-05-03T12:56:47.472Z,10.55
2023-05-03T13:06:13.218Z,12.65
2023-05-03T13:09:21.478Z,7.75
2023-05-03T13:12:25.594Z,8.13
2023-05-03T13:15:28.808Z,7.97
2023-05-03T13:18:32.007Z,6.28
2023-05-03T13:21:34.765Z,7.60
2023-05-03T13:27:39.797Z,7.18
2023-05-03T13:30:42.228Z,7.47
2023-05-03T13:33:44.880Z,12.65
2023-05-03T13:39:49.774Z,8.50
2023-05-03T13:46:03.264Z,8.05
2023-05-03T13:49:10.381Z,6.53
2023-05-03T13:52:12.952Z,6.97
2023-05-03T13:55:15.551Z,7.13
2023-05-03T13:58:17.958Z,7.70
2023-05-03T14:01:20.555Z,8.40
2023-05-03T14:04:24.809Z,7.47
2023-05-03T14:07:27.389Z,7.65
2023-05-03T14:10:29.809Z,8.10
2023-05-03T14:13:43.564Z,7.80
2023-05-03T14:16:55.245Z,6.03
2023-05-03T14:20:01.086Z,7.85
2023-05-03T14:23:04.113Z,7.03
2023-05-03T14:26:07.444Z,6.90
2023-05-03T14:29:09.902Z,6.53
2023-05-03T14:35:20.354Z,7.03
2023-05-03T14:38:22.908Z,6.40
2023-05-03T14:41:26.869Z,9.18
2023-05-03T14:44:29.458Z,7.00
2023-05-03T14:47:32.593Z,7.15
2023-05-03T14:50:35.208Z,6.93
2023-05-03T14:56:40.075Z,9.15
2023-05-03T14:59:42.623Z,6.53
2023-05-03T15:02:45.686Z,6.95
2023-05-03T15:05:51.345Z,6.07
2023-05-03T15:08:54.118Z,6.38
2023-05-03T15:11:56.732Z,8.30
2023-05-03T15:14:59.432Z,8.50
2023-05-03T15:18:01.956Z,7.25
2023-05-03T15:24:07.244Z,6.10
2023-05-03T15:27:12.032Z,6.35
2023-05-03T15:30:16.395Z,6.55
2023-05-03T15:33:19.802Z,6.47
2023-05-03T15:36:22.369Z,7.32
2023-05-03T15:39:27.576Z,7.60
2023-05-03T15:42:30.068Z,7.10
2023-05-03T15:45:32.856Z,7.20
2023-05-03T15:51:38.017Z,7.32
2023-05-03T15:54:41.490Z,8.45
2023-05-03T15:57:43.842Z,7.38
2023-05-03T16:00:47.300Z,7.40
2023-05-03T16:03:49.949Z,10.40
2023-05-03T16:06:52.968Z,8.55
2023-05-03T16:09:55.906Z,7.30
2023-05-03T16:12:58.471Z,7.35
2023-05-03T16:16:02.870Z,9.52
2023-05-03T16:19:05.488Z,6.57
2023-05-03T16:22:07.952Z,8.25
2023-05-03T16:28:16.342Z,7.40
2023-05-03T16:31:18.935Z,7.15
2023-05-03T16:37:23.666Z,6.80
2023-05-03T16:40:26.982Z,7.05
2023-05-03T16:43:29.907Z,6.53
2023-05-03T16:46:33.987Z,7.35
2023-05-03T16:49:37.102Z,7.47
2023-05-03T16:52:41.271Z,6.50
2023-05-03T16:55:44.097Z,6.55
2023-05-03T16:58:47.460Z,7.55
2023-05-03T17:01:50.973Z,7.15
2023-05-03T17:04:53.516Z,8.13
2023-05-03T17:07:56.083Z,6.32
2023-05-03T17:10:58.912Z,6.88
2023-05-03T17:14:01.485Z,7.95
2023-05-03T17:17:04.114Z,6.65
2023-05-03T17:20:07.872Z,6.85
2023-05-03T17:23:11.578Z,6.28
2023-05-03T17:26:14.578Z,7.05
2023-05-03T17:29:17.285Z,6.55
2023-05-03T17:32:19.883Z,8.70
2023-05-03T17:35:22.444Z,7.60
2023-05-03T17:38:25.132Z,7.43
2023-05-03T17:41:29.154Z,11.05
2023-05-03T17:44:32.114Z,6.75
2023-05-03T17:47:35.168Z,7.57
2023-05-03T17:50:38.092Z,7.80
2023-05-03T17:53:41.467Z,9.35
2023-05-03T17:56:45.953Z,7.65
2023-05-03T17:59:48.883Z,7.75
2023-05-03T18:02:52.731Z,9.73
2023-05-03T18:05:55.312Z,7.88
2023-05-03T18:08:58.712Z,8.95
2023-05-03T18:12:02.062Z,8.45
2023-05-03T18:15:06.303Z,9.57
2023-05-03T18:18:09.048Z,8.13
2023-05-03T18:21:12.544Z,8.23
2023-05-03T18:24:16.238Z,8.98
2023-05-03T18:27:18.765Z,9.05
2023-05-03T18:30:21.764Z,10.27
2023-05-03T18:33:24.381Z,9.75
2023-05-03T18:36:27.544Z,8.98
2023-05-03T18:39:30.024Z,8.35
2023-05-03T18:42:34.075Z,8.45
2023-05-03T18:45:40.191Z,9.10
2023-05-03T18:48:46.651Z,9.02
2023-05-03T18:51:50.592Z,10.75
2023-05-03T18:54:53.218Z,7.68
2023-05-03T18:57:55.929Z,8.98
2023-05-03T19:01:00.493Z,8.25
2023-05-03T19:04:05.150Z,7.50
2023-05-03T19:07:07.812Z,8.68
2023-05-03T19:10:10.981Z,8.80
2023-05-03T19:13:14.291Z,7.63
2023-05-03T19:16:17.042Z,8.02
2023-05-03T19:19:20.231Z,7.97
2023-05-03T19:22:22.812Z,8.55
2023-05-03T19:25:25.803Z,7.60
2023-05-03T19:28:28.282Z,10.27
2023-05-03T19:31:30.861Z,9.85
2023-05-03T19:34:35.795Z,8.63
2023-05-03T19:37:38.259Z,9.80
2023-05-03T19:40:41.439Z,8.25
2023-05-03T19:43:45.021Z,9.00
2023-05-03T19:46:47.962Z,8.40
2023-05-03T19:49:51.177Z,8.43
2023-05-03T19:52:53.756Z,8.15
2023-05-03T19:55:57.999Z,7.25
2023-05-03T19:59:00.631Z,10.68
2023-05-03T20:02:03.686Z,8.10
2023-05-03T20:05:07.073Z,9.75
2023-05-03T20:08:09.744Z,7.82
2023-05-03T20:11:12.286Z,9.13
2023-05-03T20:14:14.933Z,10.45
2023-05-03T20:17:17.623Z,9.25
2023-05-03T20:20:20.424Z,9.23
2023-05-03T20:23:22.838Z,9.10
2023-05-03T20:26:26.117Z,14.73
2023-05-03T20:29:28.843Z,8.75
2023-05-03T20:32:31.361Z,10.07
2023-05-03T20:35:33.975Z,8.55
2023-05-03T20:38:36.428Z,9.55
2023-05-03T20:41:39.201Z,10.48
2023-05-03T20:44:41.892Z,13.10
2023-05-03T20:47:44.459Z,12.07
2023-05-03T20:50:46.997Z,9.07
2023-05-03T20:53:49.351Z,9.27
2023-05-03T20:56:53.054Z,9.63
2023-05-03T20:59:55.930Z,9.10
2023-05-03T21:02:58.520Z,10.93
2023-05-03T21:06:01.274Z,9.68
2023-05-03T21:09:06.005Z,9.50
2023-05-03T21:12:09.897Z,9.55
2023-05-03T21:15:12.519Z,9.35
2023-05-03T21:18:18.969Z,10.07
2023-05-03T21:21:21.673Z,10.13
2023-05-03T21:24:26.480Z,10.85
2023-05-03T21:27:28.984Z,10.20
2023-05-03T21:30:31.832Z,12.52
2023-05-03T21:33:35.184Z,11.77
2023-05-03T21:36:43.386Z,12.35
2023-05-03T21:40:00.330Z,10.25
2023-05-03T21:43:05.610Z,10.75
2023-05-03T21:46:08.499Z,11.10
2023-05-03T21:52:13.916Z,10.75
2023-05-03T21:58:19.132Z,11.20
2023-05-03T22:01:21.922Z,9.95
2023-05-03T22:04:27.097Z,12.95
2023-05-03T22:07:29.571Z,9.68
2023-05-03T22:10:32.504Z,10.68
2023-05-03T22:13:46.117Z,9.88
2023-05-03T22:16:57.255Z,9.77
2023-05-03T22:20:00.221Z,9.52
2023-05-03T22:23:03.527Z,9.15
2023-05-03T22:26:06.367Z,9.02
2023-05-03T22:29:09.307Z,8.27
2023-05-03T22:32:11.817Z,8.45
2023-05-03T22:35:15.018Z,8.48
2023-05-03T22:38:17.546Z,8.30
2023-05-03T22:41:20.964Z,9.30
2023-05-03T22:44:23.341Z,8.93
2023-05-03T22:47:26.285Z,8.80
2023-05-03T22:53:30.958Z,9.43
2023-05-03T22:56:33.396Z,10.52
2023-05-03T22:59:36.117Z,10.32
2023-05-03T23:05:42.288Z,10.43
2023-05-03T23:08:45.159Z,8.85
2023-05-03T23:11:50.095Z,9.68
2023-05-03T23:14:52.575Z,11.77
2023-05-03T23:18:10.121Z,10.35
2023-05-03T23:21:28.103Z,10.13
2023-05-03T23:24:31.563Z,10.10
2023-05-03T23:27:34.771Z,10.20
2023-05-03T23:30:42.838Z,8.50
2023-05-03T23:33:46.176Z,9.68
2023-05-03T23:36:48.916Z,9.30
2023-05-03T23:39:52.054Z,8.77
2023-05-03T23:42:54.473Z,9.23
2023-05-03T23:45:57.216Z,10.38
2023-05-03T23:48:59.754Z,8.48
2023-05-03T23:52:02.490Z,9.48
2023-05-03T23:55:06.463Z,9.55
2023-05-03T23:58:09.219Z,9.55
